PWSweather.com
Personal Weather Stations
Station Observations
CARNOUSTIE
Pambride, CarnoustieGB DD7 6DY

PambrideCarnoustieGB DD7 6DY

Lat: 56.50889, Lon: -2.7051

Elevation: 105

Station Type: Oregon Scientific WMR200

www.carnoustieweather.co.uk

High Low Average
Temperature 57.8°F14.3°C 50.9°F10.5°C 54.4°F12.4°C
Dew Point 53.6°F12.0°C 42.3°F5.7°C 48.0°F8.9°C
Winds 12.7 mph 20.4 kmh Calm Calm 5.0 mph SE8.0 kmh SE
Wind Gusts 16.1 mph25.9 kmh -- 7.0 mph11.3 kmh
Humidity 87% 67% 79%
Pressure 29.62 in1003.0 mb 29.35 in993.9 mb -
Precipitation 0.61 in15.5 mm - -
Hour Temp Dew Point Humidity Winds Wind Gusts Pressure Precip Precip Rate Daily Precip Total
12:00 AM 54.8°F12.7°C 44.8°F7.1°C 69% 9.2 mph SW14.8 kmh SW 12.7 mph20.4 kmh 29.47 in998.0 mb - 0.00 in0.0 mm 0.00 in0.0 mm
12:10 AM 55.0°F12.8°C 44.7°F7.1°C 68% 8.1 mph SW13.0 kmh SW 13.8 mph22.2 kmh 29.50 in999.0 mb - 0.00 in0.0 mm 0.00 in0.0 mm
12:15 AM 55.0°F12.8°C 44.7°F7.1°C 68% 6.9 mph WSW11.1 kmh WSW 8.1 mph13.0 kmh 29.50 in999.0 mb - 0.00 in0.0 mm 0.00 in0.0 mm
12:20 AM 55.0°F12.8°C 44.7°F7.1°C 68% 8.1 mph WSW13.0 kmh WSW 10.4 mph16.7 kmh 29.50 in999.0 mb - 0.00 in0.0 mm 0.00 in0.0 mm
12:25 AM 55.0°F12.8°C 44.7°F7.1°C 68% 9.2 mph WSW14.8 kmh WSW 11.5 mph18.5 kmh 29.53 in1000.0 mb - 0.00 in0.0 mm 0.00 in0.0 mm
12:30 AM 55.0°F12.8°C 44.3°F6.8°C 67% 8.1 mph SW13.0 kmh SW 13.8 mph22.2 kmh 29.53 in1000.0 mb - 0.00 in0.0 mm 0.00 in0.0 mm
12:35 AM 55.0°F12.8°C 44.3°F6.8°C 67% 8.1 mph SW13.0 kmh SW 13.8 mph22.2 kmh 29.53 in1000.0 mb - 0.00 in0.0 mm 0.00 in0.0 mm
12:40 AM 55.0°F12.8°C 44.3°F6.8°C 67% 9.2 mph WSW14.8 kmh WSW 11.5 mph18.5 kmh 29.53 in1000.0 mb - 0.00 in0.0 mm 0.00 in0.0 mm
12:45 AM 54.9°F12.7°C 44.1°F6.7°C 67% 5.8 mph WSW9.3 kmh WSW 9.2 mph14.8 kmh 29.53 in1000.0 mb - 0.00 in0.0 mm 0.00 in0.0 mm
12:50 AM 54.9°F12.7°C 44.1°F6.7°C 67% 6.9 mph WSW11.1 kmh WSW 8.1 mph13.0 kmh 29.53 in1000.0 mb - 0.00 in0.0 mm 0.00 in0.0 mm
12:55 AM 54.9°F12.7°C 44.1°F6.7°C 67% 8.1 mph W13.0 kmh W 11.5 mph18.5 kmh 29.56 in1001.0 mb - 0.00 in0.0 mm 0.00 in0.0 mm
01:00 AM 54.9°F12.7°C 44.1°F6.7°C 67% 8.1 mph WSW13.0 kmh WSW 9.2 mph14.8 kmh 29.56 in1001.0 mb - 0.00 in0.0 mm 0.00 in0.0 mm
01:10 AM 54.7°F12.6°C 43.9°F6.6°C 67% 5.8 mph WSW9.3 kmh WSW 10.4 mph16.7 kmh 29.56 in1001.0 mb - 0.00 in0.0 mm 0.00 in0.0 mm
01:15 AM 54.5°F12.5°C 43.8°F6.6°C 67% 5.8 mph WSW9.3 kmh WSW 5.8 mph9.3 kmh 29.56 in1001.0 mb - 0.00 in0.0 mm 0.00 in0.0 mm
01:20 AM 54.3°F12.4°C 44.0°F6.7°C 68% 4.6 mph WSW7.4 kmh WSW 6.9 mph11.1 kmh 29.56 in1001.0 mb - 0.00 in0.0 mm 0.00 in0.0 mm
01:25 AM 54.1°F12.3°C 43.8°F6.6°C 68% 3.5 mph SW5.6 kmh SW 4.6 mph7.4 kmh 29.59 in1002.0 mb - 0.00 in0.0 mm 0.00 in0.0 mm
01:30 AM 54.1°F12.3°C 43.8°F6.6°C 68% 3.5 mph SW5.6 kmh SW 5.8 mph9.3 kmh 29.59 in1002.0 mb - 0.00 in0.0 mm 0.00 in0.0 mm
01:35 AM 54.1°F12.3°C 44.2°F6.8°C 69% 4.6 mph WSW7.4 kmh WSW 6.9 mph11.1 kmh 29.59 in1002.0 mb - 0.00 in0.0 mm 0.00 in0.0 mm
01:40 AM 54.0°F12.2°C 44.1°F6.7°C 69% 4.6 mph WSW7.4 kmh WSW 5.8 mph9.3 kmh 29.53 in1000.0 mb - 0.00 in0.0 mm 0.00 in0.0 mm
01:45 AM 54.0°F12.2°C 44.0°F6.7°C 69% 5.8 mph WSW9.3 kmh WSW 6.9 mph11.1 kmh 29.53 in1000.0 mb - 0.00 in0.0 mm 0.00 in0.0 mm
01:50 AM 54.0°F12.2°C 44.0°F6.7°C 69% 5.8 mph WSW9.3 kmh WSW 8.1 mph13.0 kmh 29.53 in1000.0 mb - 0.00 in0.0 mm 0.00 in0.0 mm
01:55 AM 53.8°F12.1°C 43.8°F6.6°C 69% 5.8 mph WSW9.3 kmh WSW 6.9 mph11.1 kmh 29.56 in1001.0 mb - 0.00 in0.0 mm 0.00 in0.0 mm
02:00 AM 53.8°F12.1°C 43.8°F6.6°C 69% 5.8 mph WSW9.3 kmh WSW 6.9 mph11.1 kmh 29.56 in1001.0 mb - 0.00 in0.0 mm 0.00 in0.0 mm
02:10 AM 54.0°F12.2°C 44.0°F6.7°C 69% 5.8 mph WSW9.3 kmh WSW 8.1 mph13.0 kmh 29.56 in1001.0 mb - 0.00 in0.0 mm 0.00 in0.0 mm
02:15 AM 54.0°F12.2°C 44.0°F6.7°C 69% 5.8 mph WSW9.3 kmh WSW 8.1 mph13.0 kmh 29.56 in1001.0 mb - 0.00 in0.0 mm 0.00 in0.0 mm
02:20 AM 54.0°F12.2°C 44.0°F6.7°C 69% 2.3 mph SW3.7 kmh SW 4.6 mph7.4 kmh 29.56 in1001.0 mb - 0.00 in0.0 mm 0.00 in0.0 mm
02:25 AM 54.0°F12.2°C 44.0°F6.7°C 69% 3.5 mph SW5.6 kmh SW 6.9 mph11.1 kmh 29.56 in1001.0 mb - 0.00 in0.0 mm 0.00 in0.0 mm
02:30 AM 53.9°F12.2°C 44.0°F6.7°C 69% 2.3 mph S3.7 kmh S 3.5 mph5.6 kmh 29.56 in1001.0 mb - 0.00 in0.0 mm 0.00 in0.0 mm
02:35 AM 53.8°F12.1°C 43.8°F6.6°C 69% 2.3 mph S3.7 kmh S 4.6 mph7.4 kmh 29.56 in1001.0 mb - 0.00 in0.0 mm 0.00 in0.0 mm
02:40 AM 53.6°F12.0°C 43.7°F6.5°C 69% 3.5 mph SSW5.6 kmh SSW 4.6 mph7.4 kmh 29.59 in1002.0 mb - 0.00 in0.0 mm 0.00 in0.0 mm
02:45 AM 53.5°F11.9°C 43.6°F6.4°C 69% 3.5 mph S5.6 kmh S 4.6 mph7.4 kmh 29.59 in1002.0 mb - 0.00 in0.0 mm 0.00 in0.0 mm
02:50 AM 53.4°F11.9°C 43.9°F6.6°C 70% 3.5 mph S5.6 kmh S 5.8 mph9.3 kmh 29.59 in1002.0 mb - 0.00 in0.0 mm 0.00 in0.0 mm
02:55 AM 53.4°F11.9°C 43.9°F6.6°C 70% 3.5 mph S5.6 kmh S 5.8 mph9.3 kmh 29.59 in1002.0 mb - 0.00 in0.0 mm 0.00 in0.0 mm
03:00 AM 53.6°F12.0°C 44.0°F6.7°C 70% 5.8 mph S9.3 kmh S 5.8 mph9.3 kmh 29.59 in1002.0 mb - 0.00 in0.0 mm 0.00 in0.0 mm
03:10 AM 53.8°F12.1°C 44.2°F6.8°C 70% 5.8 mph S9.3 kmh S 8.1 mph13.0 kmh 29.59 in1002.0 mb - 0.00 in0.0 mm 0.00 in0.0 mm
03:15 AM 54.0°F12.2°C 44.4°F6.9°C 70% 4.6 mph S7.4 kmh S 5.8 mph9.3 kmh 29.59 in1002.0 mb - 0.00 in0.0 mm 0.00 in0.0 mm
03:20 AM 54.0°F12.2°C 44.4°F6.9°C 70% 5.8 mph SSW9.3 kmh SSW 8.1 mph13.0 kmh 29.59 in1002.0 mb - 0.00 in0.0 mm 0.00 in0.0 mm
03:25 AM 54.1°F12.3°C 44.2°F6.8°C 69% 3.5 mph SSW5.6 kmh SSW 5.8 mph9.3 kmh 29.59 in1002.0 mb - 0.00 in0.0 mm 0.00 in0.0 mm
03:30 AM 54.1°F12.3°C 44.2°F6.8°C 69% 4.6 mph WSW7.4 kmh WSW 5.8 mph9.3 kmh 29.59 in1002.0 mb - 0.00 in0.0 mm 0.00 in0.0 mm
03:35 AM 54.1°F12.3°C 44.2°F6.8°C 69% 4.6 mph SSW7.4 kmh SSW 4.6 mph7.4 kmh 29.59 in1002.0 mb - 0.00 in0.0 mm 0.00 in0.0 mm
03:40 AM 54.1°F12.3°C 44.2°F6.8°C 69% 3.5 mph SSW5.6 kmh SSW 3.5 mph5.6 kmh 29.56 in1001.0 mb - 0.00 in0.0 mm 0.00 in0.0 mm
03:45 AM 54.1°F12.3°C 44.2°F6.8°C 69% 3.5 mph SW5.6 kmh SW 5.8 mph9.3 kmh 29.56 in1001.0 mb - 0.00 in0.0 mm 0.00 in0.0 mm
03:50 AM 54.0°F12.2°C 44.0°F6.7°C 69% 3.5 mph WSW5.6 kmh WSW 4.6 mph7.4 kmh 29.56 in1001.0 mb - 0.00 in0.0 mm 0.00 in0.0 mm
03:55 AM 53.8°F12.1°C 43.8°F6.6°C 69% 3.5 mph WSW5.6 kmh WSW 4.6 mph7.4 kmh 29.59 in1002.0 mb - 0.00 in0.0 mm 0.00 in0.0 mm
04:00 AM 53.6°F12.0°C 43.7°F6.5°C 69% 2.3 mph W3.7 kmh W 2.3 mph3.7 kmh 29.59 in1002.0 mb - 0.00 in0.0 mm 0.00 in0.0 mm
04:10 AM 52.9°F11.6°C 43.0°F6.1°C 69% Calm Calm 1.2 mph1.9 kmh 29.56 in1001.0 mb - 0.00 in0.0 mm 0.00 in0.0 mm
04:15 AM 52.5°F11.4°C 42.6°F5.9°C 69% Calm Calm -- 29.56 in1001.0 mb - 0.00 in0.0 mm 0.00 in0.0 mm
04:20 AM 52.2°F11.2°C 42.3°F5.7°C 69% 1.2 mph SW1.9 kmh SW 2.3 mph3.7 kmh 29.56 in1001.0 mb - 0.00 in0.0 mm 0.00 in0.0 mm
04:25 AM 52.0°F11.1°C 42.5°F5.8°C 70% 1.2 mph SW1.9 kmh SW 2.3 mph3.7 kmh 29.59 in1002.0 mb - 0.00 in0.0 mm 0.00 in0.0 mm
04:30 AM 52.0°F11.1°C 42.5°F5.8°C 70% 2.3 mph WSW3.7 kmh WSW 3.5 mph5.6 kmh 29.59 in1002.0 mb - 0.00 in0.0 mm 0.00 in0.0 mm
04:35 AM 52.0°F11.1°C 42.5°F5.8°C 70% 3.5 mph WSW5.6 kmh WSW 3.5 mph5.6 kmh 29.59 in1002.0 mb - 0.00 in0.0 mm 0.00 in0.0 mm
04:40 AM 52.3°F11.3°C 43.1°F6.2°C 71% 3.5 mph WSW5.6 kmh WSW 4.6 mph7.4 kmh 29.59 in1002.0 mb - 0.00 in0.0 mm 0.00 in0.0 mm
04:45 AM 52.5°F11.4°C 43.4°F6.3°C 71% 4.6 mph WSW7.4 kmh WSW 5.8 mph9.3 kmh 29.59 in1002.0 mb - 0.00 in0.0 mm 0.00 in0.0 mm
04:50 AM 52.7°F11.5°C 43.9°F6.6°C 72% 5.8 mph WSW9.3 kmh WSW 5.8 mph9.3 kmh 29.59 in1002.0 mb - 0.00 in0.0 mm 0.00 in0.0 mm
04:55 AM 52.9°F11.6°C 44.1°F6.7°C 72% 5.8 mph WSW9.3 kmh WSW 5.8 mph9.3 kmh 29.62 in1003.0 mb - 0.00 in0.0 mm 0.00 in0.0 mm
05:00 AM 52.9°F11.6°C 44.1°F6.7°C 72% 4.6 mph W7.4 kmh W 4.6 mph7.4 kmh 29.62 in1003.0 mb - 0.00 in0.0 mm 0.00 in0.0 mm
05:10 AM 52.9°F11.6°C 44.1°F6.7°C 72% 3.5 mph W5.6 kmh W 3.5 mph5.6 kmh 29.59 in1002.0 mb - 0.00 in0.0 mm 0.00 in0.0 mm
05:15 AM 52.7°F11.5°C 43.9°F6.6°C 72% 2.3 mph W3.7 kmh W 3.5 mph5.6 kmh 29.59 in1002.0 mb - 0.00 in0.0 mm 0.00 in0.0 mm
05:20 AM 52.7°F11.5°C 43.9°F6.6°C 72% 3.5 mph WSW5.6 kmh WSW 4.6 mph7.4 kmh 29.59 in1002.0 mb - 0.00 in0.0 mm 0.00 in0.0 mm
05:25 AM 52.7°F11.5°C 43.9°F6.6°C 72% 3.5 mph WSW5.6 kmh WSW 3.5 mph5.6 kmh 29.59 in1002.0 mb - 0.00 in0.0 mm 0.00 in0.0 mm
05:30 AM 52.5°F11.4°C 43.8°F6.6°C 72% 2.3 mph SW3.7 kmh SW 3.5 mph5.6 kmh 29.59 in1002.0 mb - 0.00 in0.0 mm 0.00 in0.0 mm
05:35 AM 52.3°F11.3°C 43.6°F6.4°C 72% 1.2 mph S1.9 kmh S 2.3 mph3.7 kmh 29.59 in1002.0 mb - 0.00 in0.0 mm 0.00 in0.0 mm
05:40 AM 52.2°F11.2°C 43.4°F6.3°C 72% Calm Calm 1.2 mph1.9 kmh 29.59 in1002.0 mb - 0.00 in0.0 mm 0.00 in0.0 mm
05:45 AM 52.0°F11.1°C 43.2°F6.2°C 72% 1.2 mph S1.9 kmh S 2.3 mph3.7 kmh 29.59 in1002.0 mb - 0.00 in0.0 mm 0.00 in0.0 mm
05:50 AM 51.7°F10.9°C 43.0°F6.1°C 72% 1.2 mph SSW1.9 kmh SSW 2.3 mph3.7 kmh 29.59 in1002.0 mb - 0.00 in0.0 mm 0.00 in0.0 mm
05:55 AM 51.6°F10.9°C 42.9°F6.1°C 72% Calm Calm 1.2 mph1.9 kmh 29.59 in1002.0 mb - 0.00 in0.0 mm 0.00 in0.0 mm
06:00 AM 51.6°F10.9°C 42.9°F6.1°C 72% Calm Calm 1.2 mph1.9 kmh 29.59 in1002.0 mb - 0.00 in0.0 mm 0.00 in0.0 mm
06:10 AM 51.4°F10.8°C 43.0°F6.1°C 73% Calm Calm 1.2 mph1.9 kmh 29.59 in1002.0 mb - 0.00 in0.0 mm 0.00 in0.0 mm
06:15 AM 51.3°F10.7°C 42.9°F6.1°C 73% 1.2 mph SSE1.9 kmh SSE 1.2 mph1.9 kmh 29.59 in1002.0 mb - 0.00 in0.0 mm 0.00 in0.0 mm
06:20 AM 51.1°F10.6°C 42.7°F5.9°C 73% Calm Calm -- 29.59 in1002.0 mb - 0.00 in0.0 mm 0.00 in0.0 mm
06:25 AM 51.1°F10.6°C 42.7°F5.9°C 73% 1.2 mph S1.9 kmh S 1.2 mph1.9 kmh 29.59 in1002.0 mb - 0.00 in0.0 mm 0.00 in0.0 mm
06:30 AM 50.9°F10.5°C 42.6°F5.9°C 73% 1.2 mph S1.9 kmh S 1.2 mph1.9 kmh 29.59 in1002.0 mb - 0.00 in0.0 mm 0.00 in0.0 mm
06:35 AM 50.9°F10.5°C 42.6°F5.9°C 73% 1.2 mph S1.9 kmh S 1.2 mph1.9 kmh 29.59 in1002.0 mb - 0.00 in0.0 mm 0.00 in0.0 mm
06:40 AM 50.9°F10.5°C 42.6°F5.9°C 73% 1.2 mph S1.9 kmh S 2.3 mph3.7 kmh 29.59 in1002.0 mb - 0.00 in0.0 mm 0.00 in0.0 mm
06:45 AM 50.9°F10.5°C 42.6°F5.9°C 73% 1.2 mph S1.9 kmh S 1.2 mph1.9 kmh 29.59 in1002.0 mb - 0.00 in0.0 mm 0.00 in0.0 mm
06:50 AM 50.9°F10.5°C 42.9°F6.1°C 74% Calm Calm 1.2 mph1.9 kmh 29.59 in1002.0 mb - 0.00 in0.0 mm 0.00 in0.0 mm
06:55 AM 51.1°F10.6°C 43.1°F6.2°C 74% 1.2 mph SSE1.9 kmh SSE 2.3 mph3.7 kmh 29.59 in1002.0 mb - 0.00 in0.0 mm 0.00 in0.0 mm
07:00 AM 51.1°F10.6°C 43.1°F6.2°C 74% Calm Calm -- 29.59 in1002.0 mb - 0.00 in0.0 mm 0.00 in0.0 mm
07:10 AM 51.3°F10.7°C 43.3°F6.3°C 74% Calm Calm -- 29.62 in1003.0 mb - 0.00 in0.0 mm 0.00 in0.0 mm
07:15 AM 51.4°F10.8°C 43.8°F6.6°C 75% Calm Calm -- 29.62 in1003.0 mb - 0.00 in0.0 mm 0.00 in0.0 mm
07:20 AM 51.6°F10.9°C 44.0°F6.7°C 75% Calm Calm -- 29.62 in1003.0 mb - 0.02 in0.5 mm 0.02 in0.5 mm
07:25 AM 51.6°F10.9°C 44.0°F6.7°C 75% Calm Calm -- 29.62 in1003.0 mb - 0.02 in0.5 mm 0.02 in0.5 mm
07:30 AM 51.6°F10.9°C 44.0°F6.7°C 75% Calm Calm -- 29.62 in1003.0 mb - 0.02 in0.5 mm 0.02 in0.5 mm
07:35 AM 51.6°F10.9°C 44.0°F6.7°C 75% Calm Calm -- 29.62 in1003.0 mb - 0.02 in0.5 mm 0.02 in0.5 mm
07:40 AM 51.6°F10.9°C 44.0°F6.7°C 75% Calm Calm 2.3 mph3.7 kmh 29.62 in1003.0 mb - 0.02 in0.5 mm 0.02 in0.5 mm
07:45 AM 51.8°F11.0°C 44.1°F6.7°C 75% 2.3 mph NE3.7 kmh NE 2.3 mph3.7 kmh 29.62 in1003.0 mb - 0.02 in0.5 mm 0.02 in0.5 mm
07:50 AM 51.9°F11.1°C 44.2°F6.8°C 75% 1.2 mph NE1.9 kmh NE 2.3 mph3.7 kmh 29.62 in1003.0 mb - 0.02 in0.5 mm 0.02 in0.5 mm
07:55 AM 52.0°F11.1°C 44.3°F6.8°C 75% 2.3 mph NE3.7 kmh NE 3.5 mph5.6 kmh 29.59 in1002.0 mb - 0.02 in0.5 mm 0.02 in0.5 mm
08:00 AM 52.2°F11.2°C 44.5°F6.9°C 75% 3.5 mph ENE5.6 kmh ENE 3.5 mph5.6 kmh 29.59 in1002.0 mb - 0.02 in0.5 mm 0.02 in0.5 mm
08:10 AM 52.3°F11.3°C 45.0°F7.2°C 76% 2.3 mph ENE3.7 kmh ENE 3.5 mph5.6 kmh 29.59 in1002.0 mb - 0.02 in0.5 mm 0.02 in0.5 mm
08:15 AM 52.5°F11.4°C 45.2°F7.3°C 76% 2.3 mph NE3.7 kmh NE 2.3 mph3.7 kmh 29.59 in1002.0 mb - 0.02 in0.5 mm 0.02 in0.5 mm
08:20 AM 52.7°F11.5°C 45.7°F7.6°C 77% 2.3 mph NE3.7 kmh NE 2.3 mph3.7 kmh 29.59 in1002.0 mb - 0.02 in0.5 mm 0.02 in0.5 mm
08:25 AM 52.9°F11.6°C 45.9°F7.7°C 77% 1.2 mph NE1.9 kmh NE 2.3 mph3.7 kmh 29.59 in1002.0 mb - 0.00 in0.0 mm 0.02 in0.5 mm
08:30 AM 53.2°F11.8°C 46.2°F7.9°C 77% 2.3 mph NE3.7 kmh NE 3.5 mph5.6 kmh 29.59 in1002.0 mb - 0.00 in0.0 mm 0.02 in0.5 mm
08:35 AM 53.2°F11.8°C 46.6°F8.1°C 78% 2.3 mph ENE3.7 kmh ENE 2.3 mph3.7 kmh 29.59 in1002.0 mb - 0.02 in0.5 mm 0.03 in0.8 mm
08:40 AM 53.4°F11.9°C 46.7°F8.2°C 78% 3.5 mph NE5.6 kmh NE 3.5 mph5.6 kmh 29.59 in1002.0 mb - 0.02 in0.5 mm 0.03 in0.8 mm
08:45 AM 53.4°F11.9°C 46.7°F8.2°C 78% 3.5 mph NE5.6 kmh NE 3.5 mph5.6 kmh 29.59 in1002.0 mb - 0.02 in0.5 mm 0.03 in0.8 mm
08:50 AM 53.6°F12.0°C 46.9°F8.3°C 78% 3.5 mph NE5.6 kmh NE 3.5 mph5.6 kmh 29.59 in1002.0 mb - 0.02 in0.5 mm 0.03 in0.8 mm
08:55 AM 53.6°F12.0°C 46.9°F8.3°C 78% 3.5 mph NE5.6 kmh NE 3.5 mph5.6 kmh 29.59 in1002.0 mb - 0.02 in0.5 mm 0.03 in0.8 mm
09:00 AM 53.6°F12.0°C 46.9°F8.3°C 78% 3.5 mph NE5.6 kmh NE 3.5 mph5.6 kmh 29.59 in1002.0 mb - 0.02 in0.5 mm 0.03 in0.8 mm
09:10 AM 53.8°F12.1°C 47.4°F8.6°C 79% 3.5 mph ENE5.6 kmh ENE 4.6 mph7.4 kmh 29.59 in1002.0 mb - 0.03 in0.8 mm 0.05 in1.3 mm
09:15 AM 53.8°F12.1°C 47.4°F8.6°C 79% 3.5 mph NE5.6 kmh NE 3.5 mph5.6 kmh 29.59 in1002.0 mb - 0.03 in0.8 mm 0.05 in1.3 mm
09:20 AM 54.0°F12.2°C 47.6°F8.7°C 79% 3.5 mph NE5.6 kmh NE 3.5 mph5.6 kmh 29.59 in1002.0 mb - 0.05 in1.3 mm 0.07 in1.8 mm
09:25 AM 54.0°F12.2°C 47.6°F8.7°C 79% 3.5 mph NE5.6 kmh NE 4.6 mph7.4 kmh 29.56 in1001.0 mb - 0.05 in1.3 mm 0.07 in1.8 mm
09:30 AM 54.0°F12.2°C 47.6°F8.7°C 79% 3.5 mph NE5.6 kmh NE 4.6 mph7.4 kmh 29.56 in1001.0 mb - 0.05 in1.3 mm 0.07 in1.8 mm
09:35 AM 54.0°F12.2°C 47.6°F8.7°C 79% 3.5 mph NE5.6 kmh NE 4.6 mph7.4 kmh 29.56 in1001.0 mb - 0.05 in1.3 mm 0.09 in2.3 mm
09:40 AM 54.1°F12.3°C 48.1°F8.9°C 80% 3.5 mph NE5.6 kmh NE 4.6 mph7.4 kmh 29.53 in1000.0 mb - 0.05 in1.3 mm 0.09 in2.3 mm
09:45 AM 54.1°F12.3°C 48.1°F8.9°C 80% 4.6 mph NE7.4 kmh NE 5.8 mph9.3 kmh 29.53 in1000.0 mb - 0.07 in1.8 mm 0.10 in2.5 mm
09:50 AM 54.1°F12.3°C 48.1°F8.9°C 80% 3.5 mph NE5.6 kmh NE 4.6 mph7.4 kmh 29.53 in1000.0 mb - 0.07 in1.8 mm 0.10 in2.5 mm
09:55 AM 54.3°F12.4°C 48.3°F9.1°C 80% 3.5 mph NE5.6 kmh NE 3.5 mph5.6 kmh 29.56 in1001.0 mb - 0.07 in1.8 mm 0.10 in2.5 mm
10:00 AM 54.3°F12.4°C 48.3°F9.1°C 80% 3.5 mph NE5.6 kmh NE 3.5 mph5.6 kmh 29.56 in1001.0 mb - 0.09 in2.3 mm 0.12 in3.0 mm
10:10 AM 54.3°F12.4°C 48.6°F9.2°C 81% 3.5 mph NE5.6 kmh NE 4.6 mph7.4 kmh 29.56 in1001.0 mb - 0.09 in2.3 mm 0.14 in3.6 mm
10:15 AM 54.5°F12.5°C 48.8°F9.3°C 81% 5.8 mph NE9.3 kmh NE 6.9 mph11.1 kmh 29.56 in1001.0 mb - 0.10 in2.5 mm 0.15 in3.8 mm
10:20 AM 54.5°F12.5°C 48.8°F9.3°C 81% 5.8 mph NE9.3 kmh NE 6.9 mph11.1 kmh 29.56 in1001.0 mb - 0.10 in2.5 mm 0.15 in3.8 mm
10:25 AM 54.5°F12.5°C 49.1°F9.5°C 82% 4.6 mph NE7.4 kmh NE 5.8 mph9.3 kmh 29.56 in1001.0 mb - 0.09 in2.3 mm 0.15 in3.8 mm
10:30 AM 54.5°F12.5°C 49.1°F9.5°C 82% 3.5 mph NE5.6 kmh NE 6.9 mph11.1 kmh 29.56 in1001.0 mb - 0.10 in2.5 mm 0.17 in4.3 mm
10:35 AM 54.5°F12.5°C 49.1°F9.5°C 82% 5.8 mph NE9.3 kmh NE 5.8 mph9.3 kmh 29.56 in1001.0 mb - 0.09 in2.3 mm 0.17 in4.3 mm
10:40 AM 54.5°F12.5°C 49.1°F9.5°C 82% 4.6 mph NE7.4 kmh NE 5.8 mph9.3 kmh 29.56 in1001.0 mb - 0.10 in2.5 mm 0.19 in4.8 mm
10:45 AM 54.4°F12.4°C 49.0°F9.4°C 82% 5.8 mph NE9.3 kmh NE 6.9 mph11.1 kmh 29.56 in1001.0 mb - 0.12 in3.0 mm 0.21 in5.3 mm
10:50 AM 54.5°F12.5°C 49.1°F9.5°C 82% 5.8 mph NE9.3 kmh NE 6.9 mph11.1 kmh 29.56 in1001.0 mb - 0.13 in3.3 mm 0.23 in5.8 mm
10:55 AM 54.3°F12.4°C 48.9°F9.4°C 82% 5.8 mph ENE9.3 kmh ENE 8.1 mph13.0 kmh 29.56 in1001.0 mb - 0.14 in3.6 mm 0.24 in6.1 mm
11:00 AM 54.5°F12.5°C 49.1°F9.5°C 82% 5.8 mph NE9.3 kmh NE 8.1 mph13.0 kmh 29.56 in1001.0 mb - 0.14 in3.6 mm 0.26 in6.6 mm
11:10 AM 54.3°F12.4°C 48.9°F9.4°C 82% 6.9 mph NE11.1 kmh NE 10.4 mph16.7 kmh 29.53 in1000.0 mb - 0.14 in3.6 mm 0.28 in7.1 mm
11:15 AM 54.3°F12.4°C 48.9°F9.4°C 82% 6.9 mph NE11.1 kmh NE 9.2 mph14.8 kmh 29.53 in1000.0 mb - 0.14 in3.6 mm 0.28 in7.1 mm
11:20 AM 54.3°F12.4°C 49.3°F9.6°C 83% 6.9 mph NE11.1 kmh NE 8.1 mph13.0 kmh 29.53 in1000.0 mb - 0.14 in3.6 mm 0.29 in7.4 mm
11:25 AM 54.3°F12.4°C 49.3°F9.6°C 83% 6.9 mph NE11.1 kmh NE 10.4 mph16.7 kmh 29.53 in1000.0 mb - 0.16 in4.1 mm 0.31 in7.9 mm
11:30 AM 54.3°F12.4°C 49.3°F9.6°C 83% 8.1 mph NE13.0 kmh NE 13.8 mph22.2 kmh 29.53 in1000.0 mb - 0.14 in3.6 mm 0.31 in7.9 mm
11:35 AM 54.1°F12.3°C 49.1°F9.5°C 83% 8.1 mph NNE13.0 kmh NNE 10.4 mph16.7 kmh 29.53 in1000.0 mb - 0.15 in3.8 mm 0.33 in8.4 mm
11:40 AM 54.1°F12.3°C 49.1°F9.5°C 83% 5.8 mph N9.3 kmh N 8.1 mph13.0 kmh 29.50 in999.0 mb - 0.14 in3.6 mm 0.33 in8.4 mm
11:45 AM 54.1°F12.3°C 49.1°F9.5°C 83% 6.9 mph NNE11.1 kmh NNE 8.1 mph13.0 kmh 29.50 in999.0 mb - 0.14 in3.6 mm 0.35 in8.9 mm
11:50 AM 54.1°F12.3°C 49.1°F9.5°C 83% 6.9 mph NE11.1 kmh NE 9.2 mph14.8 kmh 29.50 in999.0 mb - 0.12 in3.0 mm 0.35 in8.9 mm
11:55 AM 54.1°F12.3°C 49.1°F9.5°C 83% 9.2 mph NE14.8 kmh NE 10.4 mph16.7 kmh 29.47 in998.0 mb - 0.14 in3.6 mm 0.38 in9.7 mm
12:00 PM 54.1°F12.3°C 49.1°F9.5°C 83% 9.2 mph NE14.8 kmh NE 11.5 mph18.5 kmh 29.47 in998.0 mb - 0.14 in3.6 mm 0.40 in10.2 mm
12:10 PM 54.3°F12.4°C 49.6°F9.8°C 84% 5.8 mph NNE9.3 kmh NNE 8.1 mph13.0 kmh 29.50 in999.0 mb - 0.14 in3.6 mm 0.42 in10.7 mm
12:15 PM 54.5°F12.5°C 49.8°F9.9°C 84% 8.1 mph NE13.0 kmh NE 10.4 mph16.7 kmh 29.50 in999.0 mb - 0.14 in3.6 mm 0.42 in10.7 mm
12:20 PM 54.5°F12.5°C 49.8°F9.9°C 84% 6.9 mph NNE11.1 kmh NNE 8.1 mph13.0 kmh 29.50 in999.0 mb - 0.14 in3.6 mm 0.43 in10.9 mm
12:25 PM 54.5°F12.5°C 49.8°F9.9°C 84% 9.2 mph NE14.8 kmh NE 13.8 mph22.2 kmh 29.47 in998.0 mb - 0.12 in3.0 mm 0.43 in10.9 mm
12:30 PM 54.5°F12.5°C 49.8°F9.9°C 84% 6.9 mph NE11.1 kmh NE 8.1 mph13.0 kmh 29.47 in998.0 mb - 0.12 in3.0 mm 0.43 in10.9 mm
12:35 PM 54.5°F12.5°C 49.8°F9.9°C 84% 5.8 mph NE9.3 kmh NE 9.2 mph14.8 kmh 29.47 in998.0 mb - 0.13 in3.3 mm 0.45 in11.4 mm
12:40 PM 54.7°F12.6°C 49.9°F9.9°C 84% 8.1 mph NE13.0 kmh NE 9.2 mph14.8 kmh 29.47 in998.0 mb - 0.13 in3.3 mm 0.45 in11.4 mm
12:45 PM 54.7°F12.6°C 49.9°F9.9°C 84% 8.1 mph NE13.0 kmh NE 9.2 mph14.8 kmh 29.47 in998.0 mb - 0.10 in2.5 mm 0.45 in11.4 mm
12:50 PM 54.7°F12.6°C 49.9°F9.9°C 84% 9.2 mph NE14.8 kmh NE 12.7 mph20.4 kmh 29.47 in998.0 mb - 0.10 in2.5 mm 0.45 in11.4 mm
12:55 PM 54.7°F12.6°C 49.9°F9.9°C 84% 4.6 mph NE7.4 kmh NE 6.9 mph11.1 kmh 29.47 in998.0 mb - 0.10 in2.5 mm 0.47 in11.9 mm
01:00 PM 54.9°F12.7°C 50.1°F10.1°C 84% 8.1 mph NNE13.0 kmh NNE 10.4 mph16.7 kmh 29.47 in998.0 mb - 0.07 in1.8 mm 0.47 in11.9 mm
01:10 PM 55.0°F12.8°C 50.3°F10.2°C 84% 5.8 mph NE9.3 kmh NE 9.2 mph14.8 kmh 29.47 in998.0 mb - 0.05 in1.3 mm 0.47 in11.9 mm
01:15 PM 55.0°F12.8°C 50.6°F10.3°C 85% 10.4 mph NE16.7 kmh NE 13.8 mph22.2 kmh 29.47 in998.0 mb - 0.07 in1.8 mm 0.49 in12.4 mm
01:20 PM 55.0°F12.8°C 50.6°F10.3°C 85% 6.9 mph NNE11.1 kmh NNE 8.1 mph13.0 kmh 29.47 in998.0 mb - 0.06 in1.5 mm 0.49 in12.4 mm
01:25 PM 55.2°F12.9°C 50.8°F10.4°C 85% 8.1 mph NE13.0 kmh NE 11.5 mph18.5 kmh 29.44 in997.0 mb - 0.06 in1.5 mm 0.49 in12.4 mm
01:30 PM 55.2°F12.9°C 50.8°F10.4°C 85% 6.9 mph ENE11.1 kmh ENE 8.1 mph13.0 kmh 29.44 in997.0 mb - 0.06 in1.5 mm 0.49 in12.4 mm
01:35 PM 55.2°F12.9°C 50.8°F10.4°C 85% 6.9 mph NE11.1 kmh NE 8.1 mph13.0 kmh 29.44 in997.0 mb - 0.03 in0.8 mm 0.49 in12.4 mm
01:40 PM 55.2°F12.9°C 50.8°F10.4°C 85% 6.9 mph NE11.1 kmh NE 9.2 mph14.8 kmh 29.44 in997.0 mb - 0.03 in0.8 mm 0.49 in12.4 mm
01:45 PM 55.2°F12.9°C 50.8°F10.4°C 85% 8.1 mph NE13.0 kmh NE 10.4 mph16.7 kmh 29.44 in997.0 mb - 0.03 in0.8 mm 0.49 in12.4 mm
01:50 PM 55.2°F12.9°C 50.8°F10.4°C 85% 6.9 mph NE11.1 kmh NE 9.2 mph14.8 kmh 29.44 in997.0 mb - 0.03 in0.8 mm 0.49 in12.4 mm
01:55 PM 55.2°F12.9°C 50.8°F10.4°C 85% 6.9 mph NE11.1 kmh NE 9.2 mph14.8 kmh 29.44 in997.0 mb - 0.04 in1.0 mm 0.50 in12.7 mm
02:00 PM 55.0°F12.8°C 50.6°F10.3°C 85% 10.4 mph NE16.7 kmh NE 11.5 mph18.5 kmh 29.44 in997.0 mb - 0.04 in1.0 mm 0.50 in12.7 mm
02:10 PM 55.0°F12.8°C 50.6°F10.3°C 85% 6.9 mph NE11.1 kmh NE 8.1 mph13.0 kmh 29.44 in997.0 mb - 0.04 in1.0 mm 0.50 in12.7 mm
02:15 PM 55.0°F12.8°C 50.6°F10.3°C 85% 6.9 mph ENE11.1 kmh ENE 8.1 mph13.0 kmh 29.44 in997.0 mb - 0.02 in0.5 mm 0.50 in12.7 mm
02:20 PM 55.0°F12.8°C 50.6°F10.3°C 85% 4.6 mph NE7.4 kmh NE 5.8 mph9.3 kmh 29.44 in997.0 mb - 0.02 in0.5 mm 0.50 in12.7 mm
02:25 PM 55.0°F12.8°C 50.6°F10.3°C 85% 6.9 mph NE11.1 kmh NE 8.1 mph13.0 kmh 29.47 in998.0 mb - 0.02 in0.5 mm 0.50 in12.7 mm
02:30 PM 55.0°F12.8°C 50.6°F10.3°C 85% 6.9 mph NE11.1 kmh NE 8.1 mph13.0 kmh 29.47 in998.0 mb - 0.02 in0.5 mm 0.50 in12.7 mm
02:35 PM 55.0°F12.8°C 50.6°F10.3°C 85% 6.9 mph NE11.1 kmh NE 9.2 mph14.8 kmh 29.47 in998.0 mb - 0.03 in0.8 mm 0.52 in13.2 mm
02:40 PM 55.0°F12.8°C 50.6°F10.3°C 85% 9.2 mph NE14.8 kmh NE 10.4 mph16.7 kmh 29.44 in997.0 mb - 0.03 in0.8 mm 0.52 in13.2 mm
02:45 PM 55.0°F12.8°C 50.6°F10.3°C 85% 6.9 mph NE11.1 kmh NE 10.4 mph16.7 kmh 29.44 in997.0 mb - 0.03 in0.8 mm 0.52 in13.2 mm
02:50 PM 54.9°F12.7°C 50.4°F10.2°C 85% 5.8 mph E9.3 kmh E 8.1 mph13.0 kmh 29.44 in997.0 mb - 0.03 in0.8 mm 0.52 in13.2 mm
02:55 PM 54.9°F12.7°C 50.4°F10.2°C 85% 8.1 mph ENE13.0 kmh ENE 11.5 mph18.5 kmh 29.44 in997.0 mb - 0.02 in0.5 mm 0.52 in13.2 mm
03:00 PM 54.9°F12.7°C 50.4°F10.2°C 85% 6.9 mph ENE11.1 kmh ENE 9.2 mph14.8 kmh 29.44 in997.0 mb - 0.03 in0.8 mm 0.54 in13.7 mm
03:10 PM 54.9°F12.7°C 50.4°F10.2°C 85% 10.4 mph NE16.7 kmh NE 10.4 mph16.7 kmh 29.41 in995.9 mb - 0.03 in0.8 mm 0.54 in13.7 mm
03:15 PM 54.9°F12.7°C 50.4°F10.2°C 85% 10.4 mph NE16.7 kmh NE 13.8 mph22.2 kmh 29.41 in995.9 mb - 0.03 in0.8 mm 0.54 in13.7 mm
03:20 PM 54.9°F12.7°C 50.4°F10.2°C 85% 6.9 mph E11.1 kmh E 10.4 mph16.7 kmh 29.41 in995.9 mb - 0.05 in1.3 mm 0.55 in14.0 mm
03:25 PM 54.9°F12.7°C 50.4°F10.2°C 85% 5.8 mph ENE9.3 kmh ENE 8.1 mph13.0 kmh 29.41 in995.9 mb - 0.05 in1.3 mm 0.55 in14.0 mm
03:30 PM 54.9°F12.7°C 50.4°F10.2°C 85% 5.8 mph E9.3 kmh E 5.8 mph9.3 kmh 29.41 in995.9 mb - 0.05 in1.3 mm 0.55 in14.0 mm
03:35 PM 54.9°F12.7°C 50.4°F10.2°C 85% 10.4 mph ENE16.7 kmh ENE 12.7 mph20.4 kmh 29.41 in995.9 mb - 0.07 in1.8 mm 0.57 in14.5 mm
03:40 PM 54.9°F12.7°C 50.4°F10.2°C 85% 8.1 mph ENE13.0 kmh ENE 9.2 mph14.8 kmh 29.41 in995.9 mb - 0.05 in1.3 mm 0.57 in14.5 mm
03:45 PM 54.9°F12.7°C 50.4°F10.2°C 85% 10.4 mph ENE16.7 kmh ENE 13.8 mph22.2 kmh 29.41 in995.9 mb - 0.05 in1.3 mm 0.57 in14.5 mm
03:50 PM 54.7°F12.6°C 50.3°F10.2°C 85% 10.4 mph ENE16.7 kmh ENE 13.8 mph22.2 kmh 29.41 in995.9 mb - 0.05 in1.3 mm 0.57 in14.5 mm
03:55 PM 54.7°F12.6°C 50.3°F10.2°C 85% 9.2 mph ENE14.8 kmh ENE 11.5 mph18.5 kmh 29.38 in994.9 mb - 0.05 in1.3 mm 0.57 in14.5 mm
04:00 PM 54.7°F12.6°C 50.3°F10.2°C 85% 10.4 mph E16.7 kmh E 10.4 mph16.7 kmh 29.38 in994.9 mb - 0.04 in1.0 mm 0.57 in14.5 mm
04:10 PM 54.7°F12.6°C 50.6°F10.3°C 86% 10.4 mph E16.7 kmh E 13.8 mph22.2 kmh 29.38 in994.9 mb - 0.04 in1.0 mm 0.57 in14.5 mm
04:15 PM 54.5°F12.5°C 50.4°F10.2°C 86% 8.1 mph ENE13.0 kmh ENE 10.4 mph16.7 kmh 29.38 in994.9 mb - 0.04 in1.0 mm 0.57 in14.5 mm
04:20 PM 54.6°F12.6°C 50.5°F10.3°C 86% 9.2 mph E14.8 kmh E 10.4 mph16.7 kmh 29.38 in994.9 mb - 0.02 in0.5 mm 0.57 in14.5 mm
04:25 PM 54.6°F12.6°C 50.5°F10.3°C 86% 9.2 mph E14.8 kmh E 10.4 mph16.7 kmh 29.38 in994.9 mb - 0.02 in0.5 mm 0.57 in14.5 mm
04:30 PM 54.6°F12.6°C 50.5°F10.3°C 86% 9.2 mph E14.8 kmh E 11.5 mph18.5 kmh 29.38 in994.9 mb - 0.02 in0.5 mm 0.57 in14.5 mm
04:35 PM 54.5°F12.5°C 50.4°F10.2°C 86% 8.1 mph ENE13.0 kmh ENE 13.8 mph22.2 kmh 29.38 in994.9 mb - 0.00 in0.0 mm 0.57 in14.5 mm
04:40 PM 54.5°F12.5°C 50.4°F10.2°C 86% 9.2 mph ENE14.8 kmh ENE 10.4 mph16.7 kmh 29.38 in994.9 mb - 0.00 in0.0 mm 0.57 in14.5 mm
04:45 PM 54.5°F12.5°C 50.4°F10.2°C 86% 8.1 mph ENE13.0 kmh ENE 10.4 mph16.7 kmh 29.38 in994.9 mb - 0.00 in0.0 mm 0.57 in14.5 mm
04:50 PM 54.5°F12.5°C 50.4°F10.2°C 86% 6.9 mph E11.1 kmh E 9.2 mph14.8 kmh 29.38 in994.9 mb - 0.00 in0.0 mm 0.57 in14.5 mm
04:55 PM 54.5°F12.5°C 50.4°F10.2°C 86% 8.1 mph E13.0 kmh E 10.4 mph16.7 kmh 29.38 in994.9 mb - 0.00 in0.0 mm 0.57 in14.5 mm
05:00 PM 54.5°F12.5°C 50.4°F10.2°C 86% 8.1 mph E13.0 kmh E 10.4 mph16.7 kmh 29.38 in994.9 mb - 0.00 in0.0 mm 0.57 in14.5 mm
05:10 PM 54.5°F12.5°C 50.4°F10.2°C 86% 6.9 mph E11.1 kmh E 8.1 mph13.0 kmh 29.38 in994.9 mb - 0.00 in0.0 mm 0.57 in14.5 mm
05:15 PM 54.5°F12.5°C 50.4°F10.2°C 86% 6.9 mph E11.1 kmh E 8.1 mph13.0 kmh 29.38 in994.9 mb - 0.00 in0.0 mm 0.57 in14.5 mm
05:20 PM 54.5°F12.5°C 50.4°F10.2°C 86% 5.8 mph E9.3 kmh E 5.8 mph9.3 kmh 29.38 in994.9 mb - 0.00 in0.0 mm 0.57 in14.5 mm
05:25 PM 54.5°F12.5°C 50.4°F10.2°C 86% 6.9 mph ENE11.1 kmh ENE 9.2 mph14.8 kmh 29.38 in994.9 mb - 0.00 in0.0 mm 0.57 in14.5 mm
05:30 PM 54.5°F12.5°C 50.4°F10.2°C 86% 5.8 mph ESE9.3 kmh ESE 6.9 mph11.1 kmh 29.38 in994.9 mb - 0.02 in0.5 mm 0.59 in15.0 mm
05:35 PM 54.5°F12.5°C 50.4°F10.2°C 86% 5.8 mph SE9.3 kmh SE 5.8 mph9.3 kmh 29.38 in994.9 mb - 0.02 in0.5 mm 0.59 in15.0 mm
05:40 PM 54.7°F12.6°C 50.6°F10.3°C 86% 5.8 mph SE9.3 kmh SE 6.9 mph11.1 kmh 29.38 in994.9 mb - 0.02 in0.5 mm 0.59 in15.0 mm
05:45 PM 54.7°F12.6°C 50.6°F10.3°C 86% 5.8 mph SE9.3 kmh SE 9.2 mph14.8 kmh 29.38 in994.9 mb - 0.02 in0.5 mm 0.59 in15.0 mm
05:50 PM 54.9°F12.7°C 50.8°F10.4°C 86% 5.8 mph SE9.3 kmh SE 6.9 mph11.1 kmh 29.38 in994.9 mb - 0.02 in0.5 mm 0.59 in15.0 mm
05:55 PM 55.2°F12.9°C 51.1°F10.6°C 86% 8.1 mph SE13.0 kmh SE 10.4 mph16.7 kmh 29.35 in993.9 mb - 0.02 in0.5 mm 0.59 in15.0 mm
06:00 PM 55.4°F13.0°C 51.3°F10.7°C 86% 6.9 mph SE11.1 kmh SE 11.5 mph18.5 kmh 29.35 in993.9 mb - 0.02 in0.5 mm 0.59 in15.0 mm
06:10 PM 55.8°F13.2°C 51.6°F10.9°C 86% 4.6 mph SSE7.4 kmh SSE 8.1 mph13.0 kmh 29.38 in994.9 mb - 0.02 in0.5 mm 0.59 in15.0 mm
06:15 PM 55.9°F13.3°C 51.8°F11.0°C 86% 4.6 mph SSE7.4 kmh SSE 4.6 mph7.4 kmh 29.38 in994.9 mb - 0.03 in0.8 mm 0.61 in15.5 mm
06:20 PM 56.1°F13.4°C 52.0°F11.1°C 86% 4.6 mph SSE7.4 kmh SSE 6.9 mph11.1 kmh 29.38 in994.9 mb - 0.03 in0.8 mm 0.61 in15.5 mm
06:25 PM 56.1°F13.4°C 52.0°F11.1°C 86% 4.6 mph S7.4 kmh S 5.8 mph9.3 kmh 29.38 in994.9 mb - 0.03 in0.8 mm 0.61 in15.5 mm
06:30 PM 56.2°F13.4°C 52.0°F11.1°C 86% 4.6 mph SSE7.4 kmh SSE 8.1 mph13.0 kmh 29.38 in994.9 mb - 0.02 in0.5 mm 0.61 in15.5 mm
06:35 PM 56.3°F13.5°C 52.2°F11.2°C 86% 4.6 mph SSE7.4 kmh SSE 6.9 mph11.1 kmh 29.38 in994.9 mb - 0.02 in0.5 mm 0.61 in15.5 mm
06:40 PM 56.5°F13.6°C 52.3°F11.3°C 86% 4.6 mph SSE7.4 kmh SSE 6.9 mph11.1 kmh 29.38 in994.9 mb - 0.02 in0.5 mm 0.61 in15.5 mm
06:45 PM 56.5°F13.6°C 52.4°F11.3°C 86% 5.8 mph SE9.3 kmh SE 9.2 mph14.8 kmh 29.38 in994.9 mb - 0.02 in0.5 mm 0.61 in15.5 mm
06:50 PM 56.5°F13.6°C 52.3°F11.3°C 86% 6.9 mph SE11.1 kmh SE 8.1 mph13.0 kmh 29.38 in994.9 mb - 0.02 in0.5 mm 0.61 in15.5 mm
06:55 PM 56.5°F13.6°C 52.3°F11.3°C 86% 3.5 mph SSE5.6 kmh SSE 6.9 mph11.1 kmh 29.38 in994.9 mb - 0.02 in0.5 mm 0.61 in15.5 mm
07:00 PM 56.5°F13.6°C 52.3°F11.3°C 86% 4.6 mph SE7.4 kmh SE 6.9 mph11.1 kmh 29.38 in994.9 mb - 0.02 in0.5 mm 0.61 in15.5 mm
07:10 PM 56.3°F13.5°C 52.2°F11.2°C 86% 2.3 mph W3.7 kmh W 2.3 mph3.7 kmh 29.35 in993.9 mb - 0.02 in0.5 mm 0.61 in15.5 mm
07:15 PM 56.3°F13.5°C 52.1°F11.2°C 86% 2.3 mph S3.7 kmh S 3.5 mph5.6 kmh 29.35 in993.9 mb - 0.00 in0.0 mm 0.61 in15.5 mm
07:20 PM 55.9°F13.3°C 51.8°F11.0°C 86% 3.5 mph SSE5.6 kmh SSE 4.6 mph7.4 kmh 29.35 in993.9 mb - 0.00 in0.0 mm 0.61 in15.5 mm
07:25 PM 55.9°F13.3°C 51.8°F11.0°C 86% 3.5 mph SSE5.6 kmh SSE 5.8 mph9.3 kmh 29.35 in993.9 mb - 0.00 in0.0 mm 0.61 in15.5 mm
07:30 PM 55.9°F13.3°C 51.8°F11.0°C 86% 3.5 mph S5.6 kmh S 8.1 mph13.0 kmh 29.35 in993.9 mb - 0.00 in0.0 mm 0.61 in15.5 mm
07:35 PM 56.1°F13.4°C 52.0°F11.1°C 86% 4.6 mph SSW7.4 kmh SSW 8.1 mph13.0 kmh 29.35 in993.9 mb - 0.00 in0.0 mm 0.61 in15.5 mm
07:40 PM 56.5°F13.6°C 52.3°F11.3°C 86% 6.9 mph S11.1 kmh S 9.2 mph14.8 kmh 29.38 in994.9 mb - 0.00 in0.0 mm 0.61 in15.5 mm
07:45 PM 56.7°F13.7°C 52.8°F11.6°C 87% 4.6 mph S7.4 kmh S 6.9 mph11.1 kmh 29.38 in994.9 mb - 0.00 in0.0 mm 0.61 in15.5 mm
07:50 PM 56.8°F13.8°C 53.0°F11.7°C 87% 5.8 mph S9.3 kmh S 5.8 mph9.3 kmh 29.38 in994.9 mb - 0.00 in0.0 mm 0.61 in15.5 mm
07:55 PM 57.0°F13.9°C 53.2°F11.8°C 87% 4.6 mph S7.4 kmh S 6.9 mph11.1 kmh 29.38 in994.9 mb - 0.00 in0.0 mm 0.61 in15.5 mm
08:00 PM 57.0°F13.9°C 53.2°F11.8°C 87% 4.6 mph S7.4 kmh S 8.1 mph13.0 kmh 29.38 in994.9 mb - 0.00 in0.0 mm 0.61 in15.5 mm
08:10 PM 57.2°F14.0°C 53.0°F11.7°C 86% 4.6 mph S7.4 kmh S 6.9 mph11.1 kmh 29.35 in993.9 mb - 0.00 in0.0 mm 0.61 in15.5 mm
08:15 PM 57.2°F14.0°C 53.0°F11.7°C 86% 4.6 mph S7.4 kmh S 5.8 mph9.3 kmh 29.35 in993.9 mb - 0.00 in0.0 mm 0.61 in15.5 mm
08:20 PM 57.2°F14.0°C 53.0°F11.7°C 86% 5.8 mph S9.3 kmh S 6.9 mph11.1 kmh 29.35 in993.9 mb - 0.00 in0.0 mm 0.61 in15.5 mm
08:25 PM 57.0°F13.9°C 53.2°F11.8°C 87% 3.5 mph S5.6 kmh S 4.6 mph7.4 kmh 29.38 in994.9 mb - 0.00 in0.0 mm 0.61 in15.5 mm
08:30 PM 57.4°F14.1°C 53.2°F11.8°C 86% 5.8 mph S9.3 kmh S 8.1 mph13.0 kmh 29.38 in994.9 mb - 0.00 in0.0 mm 0.61 in15.5 mm
08:35 PM 57.6°F14.2°C 53.4°F11.9°C 86% 5.8 mph SSE9.3 kmh SSE 8.1 mph13.0 kmh 29.38 in994.9 mb - 0.00 in0.0 mm 0.61 in15.5 mm
08:40 PM 57.6°F14.2°C 53.4°F11.9°C 86% 6.9 mph S11.1 kmh S 10.4 mph16.7 kmh 29.38 in994.9 mb - 0.00 in0.0 mm 0.61 in15.5 mm
08:45 PM 57.7°F14.3°C 53.6°F12.0°C 86% 4.6 mph SSW7.4 kmh SSW 8.1 mph13.0 kmh 29.38 in994.9 mb - 0.00 in0.0 mm 0.61 in15.5 mm
08:50 PM 57.6°F14.2°C 53.4°F11.9°C 86% 5.8 mph S9.3 kmh S 6.9 mph11.1 kmh 29.38 in994.9 mb - 0.00 in0.0 mm 0.61 in15.5 mm
08:55 PM 57.6°F14.2°C 53.4°F11.9°C 86% 4.6 mph S7.4 kmh S 8.1 mph13.0 kmh 29.38 in994.9 mb - 0.00 in0.0 mm 0.61 in15.5 mm
09:00 PM 57.6°F14.2°C 53.4°F11.9°C 86% 4.6 mph S7.4 kmh S 6.9 mph11.1 kmh 29.38 in994.9 mb - 0.00 in0.0 mm 0.61 in15.5 mm
09:10 PM 57.6°F14.2°C 53.4°F11.9°C 86% 6.9 mph S11.1 kmh S 9.2 mph14.8 kmh 29.38 in994.9 mb - 0.00 in0.0 mm 0.61 in15.5 mm
09:15 PM 57.7°F14.3°C 53.6°F12.0°C 86% 6.9 mph SW11.1 kmh SW 8.1 mph13.0 kmh 29.38 in994.9 mb - 0.00 in0.0 mm 0.61 in15.5 mm
09:20 PM 57.7°F14.3°C 53.6°F12.0°C 86% 6.9 mph SW11.1 kmh SW 9.2 mph14.8 kmh 29.38 in994.9 mb - 0.00 in0.0 mm 0.61 in15.5 mm
09:25 PM 57.7°F14.3°C 53.6°F12.0°C 86% 8.1 mph SSW13.0 kmh SSW 12.7 mph20.4 kmh 29.38 in994.9 mb - 0.00 in0.0 mm 0.61 in15.5 mm
09:30 PM 57.7°F14.3°C 53.6°F12.0°C 86% 6.9 mph SSW11.1 kmh SSW 8.1 mph13.0 kmh 29.38 in994.9 mb - 0.00 in0.0 mm 0.61 in15.5 mm
09:35 PM 57.7°F14.3°C 53.6°F12.0°C 86% 8.1 mph SSW13.0 kmh SSW 12.7 mph20.4 kmh 29.38 in994.9 mb - 0.00 in0.0 mm 0.61 in15.5 mm
09:40 PM 57.8°F14.3°C 53.6°F12.0°C 86% 8.1 mph WSW13.0 kmh WSW 11.5 mph18.5 kmh 29.38 in994.9 mb - 0.00 in0.0 mm 0.61 in15.5 mm
09:45 PM 57.6°F14.2°C 53.4°F11.9°C 86% 10.4 mph WSW16.7 kmh WSW 12.7 mph20.4 kmh 29.38 in994.9 mb - 0.00 in0.0 mm 0.61 in15.5 mm
09:50 PM 57.4°F14.1°C 53.2°F11.8°C 86% 10.4 mph WSW16.7 kmh WSW 15.0 mph24.1 kmh 29.38 in994.9 mb - 0.00 in0.0 mm 0.61 in15.5 mm
09:55 PM 57.2°F14.0°C 52.7°F11.5°C 85% 6.9 mph WSW11.1 kmh WSW 11.5 mph18.5 kmh 29.41 in995.9 mb - 0.00 in0.0 mm 0.61 in15.5 mm
10:00 PM 56.8°F13.8°C 52.4°F11.3°C 85% 10.4 mph WNW16.7 kmh WNW 11.5 mph18.5 kmh 29.41 in995.9 mb - 0.00 in0.0 mm 0.61 in15.5 mm
10:10 PM 56.5°F13.6°C 51.7°F10.9°C 84% 12.7 mph WSW20.4 kmh WSW 16.1 mph25.9 kmh 29.41 in995.9 mb - 0.00 in0.0 mm 0.61 in15.5 mm
10:15 PM 56.5°F13.6°C 51.7°F10.9°C 84% 8.1 mph SW13.0 kmh SW 9.2 mph14.8 kmh 29.41 in995.9 mb - 0.00 in0.0 mm 0.61 in15.5 mm
10:20 PM 56.3°F13.5°C 51.2°F10.7°C 83% 8.1 mph WSW13.0 kmh WSW 10.4 mph16.7 kmh 29.41 in995.9 mb - 0.00 in0.0 mm 0.61 in15.5 mm
10:25 PM 56.3°F13.5°C 51.2°F10.7°C 83% 6.9 mph SW11.1 kmh SW 8.1 mph13.0 kmh 29.44 in997.0 mb - 0.00 in0.0 mm 0.61 in15.5 mm
10:30 PM 56.1°F13.4°C 51.0°F10.6°C 83% 4.6 mph WSW7.4 kmh WSW 5.8 mph9.3 kmh 29.44 in997.0 mb - 0.00 in0.0 mm 0.61 in15.5 mm
10:35 PM 55.9°F13.3°C 50.9°F10.5°C 83% 5.8 mph W9.3 kmh W 8.1 mph13.0 kmh 29.44 in997.0 mb - 0.00 in0.0 mm 0.61 in15.5 mm
10:40 PM 55.9°F13.3°C 50.8°F10.4°C 83% 4.6 mph W7.4 kmh W 5.8 mph9.3 kmh 29.44 in997.0 mb - 0.00 in0.0 mm 0.61 in15.5 mm
10:45 PM 55.6°F13.1°C 50.2°F10.1°C 82% 4.6 mph SW7.4 kmh SW 5.8 mph9.3 kmh 29.44 in997.0 mb - 0.00 in0.0 mm 0.61 in15.5 mm
10:50 PM 55.4°F13.0°C 50.0°F10.0°C 82% 5.8 mph SW9.3 kmh SW 8.1 mph13.0 kmh 29.44 in997.0 mb - 0.00 in0.0 mm 0.61 in15.5 mm
10:55 PM 55.0°F12.8°C 49.6°F9.8°C 82% 8.1 mph SW13.0 kmh SW 11.5 mph18.5 kmh 29.44 in997.0 mb - 0.00 in0.0 mm 0.61 in15.5 mm
11:00 PM 54.7°F12.6°C 49.0°F9.4°C 81% 5.8 mph WSW9.3 kmh WSW 10.4 mph16.7 kmh 29.44 in997.0 mb - 0.00 in0.0 mm 6.87 in174.5 mm
11:10 PM 54.1°F12.3°C 48.1°F8.9°C 80% 9.2 mph WSW14.8 kmh WSW 13.8 mph22.2 kmh 29.44 in997.0 mb - 0.00 in0.0 mm 6.87 in174.5 mm
11:15 PM 53.8°F12.1°C 47.8°F8.8°C 80% 10.4 mph SW16.7 kmh SW 12.7 mph20.4 kmh 29.44 in997.0 mb - 0.00 in0.0 mm 6.87 in174.5 mm
11:20 PM 53.6°F12.0°C 47.2°F8.4°C 79% 5.8 mph SW9.3 kmh SW 9.2 mph14.8 kmh 29.44 in997.0 mb - 0.00 in0.0 mm 6.87 in174.5 mm
11:25 PM 53.2°F11.8°C 47.2°F8.4°C 80% 5.8 mph WSW9.3 kmh WSW 8.1 mph13.0 kmh 29.44 in997.0 mb - 0.00 in0.0 mm 6.87 in174.5 mm
11:30 PM 53.1°F11.7°C 47.1°F8.4°C 80% 8.1 mph SW13.0 kmh SW 12.7 mph20.4 kmh 29.44 in997.0 mb - 0.00 in0.0 mm 6.87 in174.5 mm
11:35 PM 52.9°F11.6°C 46.9°F8.3°C 80% 6.9 mph WSW11.1 kmh WSW 8.1 mph13.0 kmh 29.44 in997.0 mb - 0.00 in0.0 mm 6.87 in174.5 mm
11:40 PM 52.7°F11.5°C 46.7°F8.2°C 80% 5.8 mph W9.3 kmh W 8.1 mph13.0 kmh 29.47 in998.0 mb - 0.00 in0.0 mm 6.87 in174.5 mm
11:45 PM 52.5°F11.4°C 46.5°F8.1°C 80% 6.9 mph WSW11.1 kmh WSW 8.1 mph13.0 kmh 29.47 in998.0 mb - 0.00 in0.0 mm 6.87 in174.5 mm
11:50 PM 52.3°F11.3°C 46.4°F8.0°C 80% 6.9 mph WSW11.1 kmh WSW 9.2 mph14.8 kmh 29.47 in998.0 mb - 0.00 in0.0 mm 6.87 in174.5 mm
11:55 PM 52.2°F11.2°C 46.2°F7.9°C 80% 4.6 mph SW7.4 kmh SW 5.8 mph9.3 kmh 29.47 in998.0 mb - 0.00 in0.0 mm 6.87 in174.5 mm